Time;durP1;ratioP1;P1;durP2;ratioP2;P2;SDS_P1;SDS_P2;PMS_P1;PMS_P2;Temp;Humidity;BMP_temperature;BMP_pressure;BME280_temperature;BME280_humidity;BME280_pressure;Samples;Min_cycle;Max_cycle;Signal;HPM_P1;HPM_P2
2023/04/18 00:00:25;;;;;;;;;;;;;;;12.65;69.65;94065.84;4192497;28;20430;-60
2023/04/18 00:02:28;;;;;;;;;;;;;;;12.63;69.64;94068.66;4192154;28;19924;-61
2023/04/18 00:04:32;;;;;;;;;;;;;;;12.64;69.53;94070.28;4190846;28;19962;-61
2023/04/18 00:06:37;;;;;;;;;;;;;;;12.66;69.73;94068.28;4188779;28;19932;-61
2023/04/18 00:08:39;;;;;;;;;;;;;;;12.59;69.50;94066.59;4190179;28;20395;-59
2023/04/18 00:10:40;;;;;;;;;;;;;;;12.53;69.67;94073.41;4183740;28;20385;-60
2023/04/18 00:12:42;;;;;;;;;;;;;;;12.59;70.07;94077.09;4192685;28;19974;-60
2023/04/18 00:14:43;;;;;;;;;;;;;;;12.63;70.02;94073.91;4192408;28;19948;-59
2023/04/18 00:16:45;;;;;;;;;;;;;;;12.69;69.65;94072.34;4192169;28;20007;-60
2023/04/18 00:18:47;;;;;;;;;;;;;;;12.76;69.62;94067.16;4190814;28;20020;-60
2023/04/18 00:20:48;;;;;;;;;;;;;;;12.79;69.96;94072.03;4193798;28;19986;-61
2023/04/18 00:22:52;;;;;;;;;;;;;;;12.82;70.13;94074.28;4190677;28;20426;-61
2023/04/18 00:24:54;;;;;;;;;;;;;;;12.87;70.28;94072.72;4186117;28;19958;-62
2023/04/18 00:26:56;;;;;;;;;;;;;;;12.87;69.89;94069.28;4192538;28;19936;-59
2023/04/18 00:28:57;;;;;;;;;;;;;;;12.89;70.15;94072.53;4192158;28;20355;-62
2023/04/18 00:30:59;;;;;;;;;;;;;;;12.91;69.60;94070.53;4192349;28;20379;-61
2023/04/18 00:33:01;;;;;;;;;;;;;;;12.91;69.60;94068.72;4191683;28;19924;-60
2023/04/18 00:35:02;;;;;;;;;;;;;;;12.89;69.70;94073.34;4191118;28;19924;-60
2023/04/18 00:37:04;;;;;;;;;;;;;;;12.87;70.07;94072.72;4193010;28;20051;-61
2023/04/18 00:39:06;;;;;;;;;;;;;;;12.84;70.41;94069.66;4191832;28;19978;-60
2023/04/18 00:41:07;;;;;;;;;;;;;;;12.83;70.37;94065.41;4194411;28;19933;-60
2023/04/18 00:43:08;;;;;;;;;;;;;;;12.81;70.62;94067.41;4197364;28;19960;-59
2023/04/18 00:45:10;;;;;;;;;;;;;;;12.85;70.44;94060.78;4196078;28;20002;-59
2023/04/18 00:47:12;;;;;;;;;;;;;;;12.87;70.42;94067.47;4195597;28;19928;-60
2023/04/18 00:49:13;;;;;;;;;;;;;;;12.85;70.50;94060.78;4190993;28;19932;-59
2023/04/18 00:51:15;;;;;;;;;;;;;;;12.81;70.75;94062.97;4185824;28;20007;-58
2023/04/18 00:53:16;;;;;;;;;;;;;;;12.78;71.00;94060.72;4196277;28;19925;-61
2023/04/18 00:55:18;;;;;;;;;;;;;;;12.72;70.77;94058.03;4195203;28;19986;-60
2023/04/18 00:57:20;;;;;;;;;;;;;;;12.73;70.87;94051.75;4192512;28;19928;-59
2023/04/18 00:59:22;;;;;;;;;;;;;;;12.76;71.12;94054.84;4189528;28;19958;-60
2023/04/18 01:01:24;;;;;;;;;;;;;;;12.78;70.79;94054.66;4192012;28;19966;-60
2023/04/18 01:03:25;;;;;;;;;;;;;;;12.85;70.80;94056.31;4190994;28;19983;-59
2023/04/18 01:05:27;;;;;;;;;;;;;;;12.83;70.79;94052.25;4192648;28;20064;-60
2023/04/18 01:07:29;;;;;;;;;;;;;;;12.79;71.50;94046.56;4192216;28;20045;-59
2023/04/18 01:09:31;;;;;;;;;;;;;;;12.77;71.51;94047.75;4187108;28;19979;-60
2023/04/18 01:11:32;;;;;;;;;;;;;;;12.76;72.01;94046.94;4191036;28;19929;-59
2023/04/18 01:13:34;;;;;;;;;;;;;;;12.74;71.85;94048.97;4191971;28;19925;-61
2023/04/18 01:15:35;;;;;;;;;;;;;;;12.78;72.26;94050.22;4191008;28;19924;-60
2023/04/18 01:17:38;;;;;;;;;;;;;;;12.73;72.53;94049.13;4192064;28;19982;-60
2023/04/18 01:19:40;;;;;;;;;;;;;;;12.72;72.54;94045.69;4190756;28;19970;-62
2023/04/18 01:21:42;;;;;;;;;;;;;;;12.75;72.43;94047.13;4191782;28;19964;-61
2023/04/18 01:23:44;;;;;;;;;;;;;;;12.75;72.42;94041.88;4192075;28;19924;-60
2023/04/18 01:25:46;;;;;;;;;;;;;;;12.69;72.46;94044.25;4190911;28;19928;-62
2023/04/18 01:27:47;;;;;;;;;;;;;;;12.71;72.57;94051.94;4187718;28;20014;-64
2023/04/18 01:29:49;;;;;;;;;;;;;;;12.69;72.63;94044.25;4189307;28;19928;-62
2023/04/18 01:31:50;;;;;;;;;;;;;;;12.66;72.73;94049.88;4185749;28;20446;-61
2023/04/18 01:33:52;;;;;;;;;;;;;;;12.63;72.80;94050.25;4193769;28;19924;-61
2023/04/18 01:35:53;;;;;;;;;;;;;;;12.62;72.81;94051.25;4195131;28;19990;-62
2023/04/18 01:37:56;;;;;;;;;;;;;;;12.60;72.33;94050.63;4195192;28;19925;-60
2023/04/18 01:39:58;;;;;;;;;;;;;;;12.54;72.98;94051.41;4192982;28;19964;-59
2023/04/18 01:42:00;;;;;;;;;;;;;;;12.55;72.82;94049.56;4194822;28;19931;-60
2023/04/18 01:44:02;;;;;;;;;;;;;;;12.49;73.55;94045.88;4193527;28;19950;-61
2023/04/18 01:46:04;;;;;;;;;;;;;;;12.54;73.29;94043.50;4194101;28;19929;-60
2023/04/18 01:48:05;;;;;;;;;;;;;;;12.56;73.28;94035.44;4194209;28;19940;-60
2023/04/18 01:50:07;;;;;;;;;;;;;;;12.59;73.48;94048.22;4195048;28;20009;-61
2023/04/18 01:52:09;;;;;;;;;;;;;;;12.62;73.65;94046.00;4194270;28;19925;-59
2023/04/18 01:54:10;;;;;;;;;;;;;;;12.64;73.61;94043.19;4194864;28;20198;-60
2023/04/18 01:56:12;;;;;;;;;;;;;;;12.67;73.52;94046.25;4194568;28;19978;-61
2023/04/18 01:58:15;;;;;;;;;;;;;;;12.62;73.29;94046.00;4194239;28;19928;-61
2023/04/18 02:00:16;;;;;;;;;;;;;;;12.56;73.46;94041.53;4193495;28;19982;-62
2023/04/18 02:02:18;;;;;;;;;;;;;;;12.57;73.94;94031.81;4194571;28;19966;-61
2023/04/18 02:04:20;;;;;;;;;;;;;;;12.59;73.78;94038.50;4193561;28;20408;-61
2023/04/18 02:06:21;;;;;;;;;;;;;;;12.56;73.32;94038.88;4194428;28;19932;-60
2023/04/18 02:08:23;;;;;;;;;;;;;;;12.47;73.55;94042.63;4194043;28;19943;-59
2023/04/18 02:10:24;;;;;;;;;;;;;;;12.42;74.12;94039.75;4188407;28;19924;-59
2023/04/18 02:12:26;;;;;;;;;;;;;;;12.38;73.80;94039.28;4191393;28;19925;-59
2023/04/18 02:14:30;;;;;;;;;;;;;;;12.33;73.60;94046.13;4193364;28;20495;-61
2023/04/18 02:16:31;;;;;;;;;;;;;;;12.27;73.74;94040.59;4193483;28;19979;-62
2023/04/18 02:18:33;;;;;;;;;;;;;;;12.24;74.10;94043.59;4193703;28;20487;-61
2023/04/18 02:20:35;;;;;;;;;;;;;;;12.27;74.34;94051.09;4194435;28;19924;-60
2023/04/18 02:22:37;;;;;;;;;;;;;;;12.31;74.61;94042.88;4194193;28;20335;-61
2023/04/18 02:24:38;;;;;;;;;;;;;;;12.32;74.24;94050.53;4193154;28;19924;-61
2023/04/18 02:26:40;;;;;;;;;;;;;;;12.35;74.01;94049.38;4195046;28;19964;-61
2023/04/18 02:28:41;;;;;;;;;;;;;;;12.35;74.11;94044.13;4193704;28;19928;-60
2023/04/18 02:30:43;;;;;;;;;;;;;;;12.34;74.21;94047.72;4192813;28;20252;-61
2023/04/18 02:32:44;;;;;;;;;;;;;;;12.38;74.34;94049.00;4192017;28;19999;-61
2023/04/18 02:34:46;;;;;;;;;;;;;;;12.37;74.13;94044.72;4181773;28;19940;-61
2023/04/18 02:36:48;;;;;;;;;;;;;;;12.33;74.30;94051.38;4193789;28;19996;-61
2023/04/18 02:38:49;;;;;;;;;;;;;;;12.31;74.52;94054.19;4193836;28;19928;-60
2023/04/18 02:40:51;;;;;;;;;;;;;;;12.32;74.10;94060.25;4191818;28;19931;-60
2023/04/18 02:42:52;;;;;;;;;;;;;;;12.32;74.43;94054.97;4193732;28;19932;-61
2023/04/18 02:44:54;;;;;;;;;;;;;;;12.27;74.37;94053.72;4193470;28;19942;-61
2023/04/18 02:46:55;;;;;;;;;;;;;;;12.28;74.71;94049.28;4193735;28;19968;-60
2023/04/18 02:48:57;;;;;;;;;;;;;;;12.27;74.98;94053.72;4192074;28;19972;-59
2023/04/18 02:51:05;;;;;;;;;;;;;;;12.30;74.66;94047.28;4193255;28;19943;-61
2023/04/18 02:53:06;;;;;;;;;;;;;;;12.35;74.79;94050.19;4194044;28;19954;-60
2023/04/18 02:55:08;;;;;;;;;;;;;;;12.37;74.69;94048.19;4194058;28;19982;-60
2023/04/18 02:57:09;;;;;;;;;;;;;;;12.38;74.75;94051.63;4192981;28;19970;-61
2023/04/18 02:59:11;;;;;;;;;;;;;;;12.38;74.40;94052.44;4192550;28;20394;-62
2023/04/18 03:01:12;;;;;;;;;;;;;;;12.28;74.62;94052.75;4192779;28;19936;-63
2023/04/18 03:03:14;;;;;;;;;;;;;;;12.27;74.61;94048.47;4192532;28;20027;-62
2023/04/18 03:05:16;;;;;;;;;;;;;;;12.11;74.91;94048.72;4193937;28;19925;-61
2023/04/18 03:07:17;;;;;;;;;;;;;;;11.97;75.71;94057.41;4193514;28;19931;-60
2023/04/18 03:09:19;;;;;;;;;;;;;;;11.71;76.51;94058.66;4193799;28;20499;-59
2023/04/18 03:11:21;;;;;;;;;;;;;;;11.63;77.04;94061.38;4191171;28;20000;-61
2023/04/18 03:13:22;;;;;;;;;;;;;;;11.62;76.90;94054.50;4191807;28;19928;-60
2023/04/18 03:15:24;;;;;;;;;;;;;;;11.56;77.39;94056.03;4192657;28;19924;-59
2023/04/18 03:17:25;;;;;;;;;;;;;;;11.57;77.41;94062.09;4193058;28;20016;-60
2023/04/18 03:19:27;;;;;;;;;;;;;;;11.61;77.74;94063.38;4192337;28;19932;-60
2023/04/18 03:21:29;;;;;;;;;;;;;;;11.58;77.34;94064.53;4192813;28;19998;-60
2023/04/18 03:23:30;;;;;;;;;;;;;;;11.61;77.79;94074.66;4193437;28;19936;-59
2023/04/18 03:25:33;;;;;;;;;;;;;;;11.68;77.69;94074.78;4192681;28;19935;-60
2023/04/18 03:27:34;;;;;;;;;;;;;;;11.79;77.35;94076.94;4192965;28;19924;-59
2023/04/18 03:29:36;;;;;;;;;;;;;;;11.82;76.81;94081.81;4192347;28;19925;-61
2023/04/18 03:31:37;;;;;;;;;;;;;;;11.87;76.81;94084.72;4193406;28;19932;-60
2023/04/18 03:33:41;;;;;;;;;;;;;;;11.94;76.30;94084.00;4191853;28;19925;-61
2023/04/18 03:35:42;;;;;;;;;;;;;;;11.98;76.49;94083.50;4182306;28;19935;-59
2023/04/18 03:37:44;;;;;;;;;;;;;;;12.01;76.24;94084.94;4192328;28;20001;-60
2023/04/18 03:39:45;;;;;;;;;;;;;;;12.07;76.06;94089.44;4193325;28;19960;-62
2023/04/18 03:41:48;;;;;;;;;;;;;;;12.09;76.22;94083.00;4193046;28;19928;-61
2023/04/18 03:43:49;;;;;;;;;;;;;;;12.06;75.77;94078.13;4192038;28;19970;-61
2023/04/18 03:45:51;;;;;;;;;;;;;;;12.09;76.08;94087.47;4188952;28;19986;-60
2023/04/18 03:47:53;;;;;;;;;;;;;;;12.00;75.90;94083.28;4192546;28;20019;-59
2023/04/18 03:49:54;;;;;;;;;;;;;;;11.80;76.11;94089.06;4192631;28;19924;-59
2023/04/18 03:51:56;;;;;;;;;;;;;;;11.66;77.26;94082.81;4192564;28;19928;-58
2023/04/18 03:53:57;;;;;;;;;;;;;;;11.64;77.48;94078.75;4190468;28;20011;-62
2023/04/18 03:55:59;;;;;;;;;;;;;;;11.58;77.90;94087.34;4192113;28;19997;-61
2023/04/18 03:58:00;;;;;;;;;;;;;;;11.58;78.26;94088.16;4193013;28;19924;-60
2023/04/18 04:00:03;;;;;;;;;;;;;;;11.63;78.34;94087.63;4191515;28;19928;-62
2023/04/18 04:02:05;;;;;;;;;;;;;;;11.69;77.99;94081.66;4192682;28;19989;-62
2023/04/18 04:04:08;;;;;;;;;;;;;;;11.76;77.41;94087.78;4191684;28;19948;-61
2023/04/18 04:06:09;;;;;;;;;;;;;;;11.81;77.22;94090.69;4193524;28;20486;-60
2023/04/18 04:08:11;;;;;;;;;;;;;;;11.86;77.20;94085.72;4192905;28;19932;-61
2023/04/18 04:10:13;;;;;;;;;;;;;;;11.90;77.17;94085.41;4189448;28;20340;-59
2023/04/18 04:12:14;;;;;;;;;;;;;;;11.91;77.21;94090.44;4189754;28;19935;-60
2023/04/18 04:14:16;;;;;;;;;;;;;;;11.98;76.97;94093.16;4189280;28;19951;-62
2023/04/18 04:16:18;;;;;;;;;;;;;;;12.02;76.57;94091.78;4191309;28;19962;-61
2023/04/18 04:18:19;;;;;;;;;;;;;;;12.03;76.36;94096.06;4191693;28;19928;-61
2023/04/18 04:20:25;;;;;;;;;;;;;;;12.05;76.55;94097.50;4193184;28;19929;-60
2023/04/18 04:22:26;;;;;;;;;;;;;;;12.07;76.37;94092.88;4193602;28;19924;-63
2023/04/18 04:24:28;;;;;;;;;;;;;;;12.12;76.29;94092.34;4191686;28;19936;-63
2023/04/18 04:26:30;;;;;;;;;;;;;;;12.19;76.29;94097.66;4193115;28;20011;-61
2023/04/18 04:28:32;;;;;;;;;;;;;;;12.19;75.97;94098.47;4192725;28;20417;-62
2023/04/18 04:30:34;;;;;;;;;;;;;;;12.20;76.13;94099.31;4191920;28;20349;-61
2023/04/18 04:32:37;;;;;;;;;;;;;;;12.23;76.36;94098.94;4191814;28;19950;-60
2023/04/18 04:34:40;;;;;;;;;;;;;;;12.29;76.39;94095.56;4182446;28;19971;-62
2023/04/18 04:36:42;;;;;;;;;;;;;;;12.34;76.05;94103.69;4192734;28;19932;-59
2023/04/18 04:38:44;;;;;;;;;;;;;;;12.40;75.92;94099.53;4192384;28;19925;-62
2023/04/18 04:40:45;;;;;;;;;;;;;;;12.47;75.82;94106.47;4192505;28;19951;-61
2023/04/18 04:42:47;;;;;;;;;;;;;;;12.53;75.66;94104.13;4192313;28;19994;-62
2023/04/18 04:44:49;;;;;;;;;;;;;;;12.54;75.99;94109.19;4190716;28;19936;-62
2023/04/18 04:46:51;;;;;;;;;;;;;;;12.58;75.64;94113.06;4192662;28;19931;-61
2023/04/18 04:48:53;;;;;;;;;;;;;;;12.60;75.67;94111.06;4190739;28;20335;-59
2023/04/18 04:50:55;;;;;;;;;;;;;;;12.61;75.61;94104.81;4192754;28;19989;-62
2023/04/18 04:52:57;;;;;;;;;;;;;;;12.52;75.02;94107.72;4193075;28;19924;-61
2023/04/18 04:54:58;;;;;;;;;;;;;;;12.18;75.16;94117.06;4191770;28;19982;-62
2023/04/18 04:57:01;;;;;;;;;;;;;;;11.71;77.45;94115.59;4191771;28;19955;-60
2023/04/18 04:59:02;;;;;;;;;;;;;;;11.48;77.96;94119.06;4192849;28;20272;-63
2023/04/18 05:01:06;;;;;;;;;;;;;;;11.53;78.60;94123.78;4191661;28;20002;-63
2023/04/18 05:03:08;;;;;;;;;;;;;;;11.34;78.46;94112.81;4191791;28;20329;-62
2023/04/18 05:05:10;;;;;;;;;;;;;;;11.19;79.12;94125.91;4192534;28;19981;-61
2023/04/18 05:07:11;;;;;;;;;;;;;;;11.26;79.22;94121.56;4194326;28;19981;-60
2023/04/18 05:09:13;;;;;;;;;;;;;;;11.17;79.22;94125.25;4195312;28;19964;-61
2023/04/18 05:11:15;;;;;;;;;;;;;;;11.20;79.36;94124.06;4193899;28;19986;-64
2023/04/18 05:13:16;;;;;;;;;;;;;;;11.15;79.28;94131.66;4190664;28;19933;-63
2023/04/18 05:15:18;;;;;;;;;;;;;;;11.29;79.39;94128.25;4194343;28;19936;-63
2023/04/18 05:17:20;;;;;;;;;;;;;;;11.42;79.32;94128.50;4195498;28;19928;-61
2023/04/18 05:19:22;;;;;;;;;;;;;;;11.47;78.53;94136.63;4194753;28;19924;-63
2023/04/18 05:21:24;;;;;;;;;;;;;;;11.56;78.39;94123.44;4194802;28;19977;-62
2023/04/18 05:23:26;;;;;;;;;;;;;;;11.66;77.87;94129.25;4194231;28;19928;-60
2023/04/18 05:25:28;;;;;;;;;;;;;;;11.70;77.86;94133.13;4195469;28;20352;-62
2023/04/18 05:27:30;;;;;;;;;;;;;;;11.44;78.49;94133.53;4195173;28;19932;-61
2023/04/18 05:29:31;;;;;;;;;;;;;;;11.29;79.53;94138.75;4194238;28;20392;-62
2023/04/18 05:31:33;;;;;;;;;;;;;;;11.22;79.67;94137.81;4191915;28;19924;-61
2023/04/18 05:33:35;;;;;;;;;;;;;;;11.25;80.27;94132.25;4194333;28;20351;-62
2023/04/18 05:35:36;;;;;;;;;;;;;;;11.45;80.59;94132.56;4195806;28;19932;-61
2023/04/18 05:37:38;;;;;;;;;;;;;;;11.51;79.08;94136.25;4194211;28;19981;-62
2023/04/18 05:39:40;;;;;;;;;;;;;;;11.63;78.93;94135.66;4194657;28;19954;-62
2023/04/18 05:41:42;;;;;;;;;;;;;;;11.62;77.98;94131.41;4195231;28;20291;-60
2023/04/18 05:43:43;;;;;;;;;;;;;;;11.73;78.42;94142.47;4194823;28;20002;-61
2023/04/18 05:45:58;;;;;;;;;;;;;;;11.85;77.67;94139.22;4182807;28;19999;-60
2023/04/18 05:47:59;;;;;;;;;;;;;;;11.65;77.72;94138.09;4194655;28;20061;-62
2023/04/18 05:50:01;;;;;;;;;;;;;;;11.75;77.82;94143.09;4195390;28;19928;-61
2023/04/18 05:52:03;;;;;;;;;;;;;;;11.65;77.65;94138.09;4194201;28;19924;-60
2023/04/18 05:54:05;;;;;;;;;;;;;;;11.54;77.18;94136.72;4194888;28;20486;-61
2023/04/18 05:56:06;;;;;;;;;;;;;;;11.53;78.26;94139.50;4193159;28;19973;-61
2023/04/18 05:58:08;;;;;;;;;;;;;;;11.73;78.60;94135.41;4195113;28;20110;-64
2023/04/18 06:00:12;;;;;;;;;;;;;;;11.84;77.43;94142.00;4193185;28;20010;-62
2023/04/18 06:02:14;;;;;;;;;;;;;;;12.03;77.65;94143.31;4194877;28;20001;-62
2023/04/18 06:04:15;;;;;;;;;;;;;;;12.18;76.46;94135.44;4187464;28;20014;-61
2023/04/18 06:06:17;;;;;;;;;;;;;;;12.14;75.82;94142.03;4189765;28;19928;-53
2023/04/18 06:08:19;;;;;;;;;;;;;;;11.81;76.52;94143.19;4194600;28;20284;-54
2023/04/18 06:10:20;;;;;;;;;;;;;;;11.95;77.04;94143.41;4194258;28;19932;-56
2023/04/18 06:12:22;;;;;;;;;;;;;;;12.09;76.98;94148.66;4195206;28;20030;-52
2023/04/18 06:14:24;;;;;;;;;;;;;;;12.27;76.46;94143.00;4189659;28;19932;-55
2023/04/18 06:16:26;;;;;;;;;;;;;;;12.29;75.41;94145.47;4193195;28;20002;-54
2023/04/18 06:18:28;;;;;;;;;;;;;;;12.29;75.61;94141.03;4193249;28;19931;-52
2023/04/18 06:20:29;;;;;;;;;;;;;;;12.40;76.13;94141.56;4194434;28;19928;-52
2023/04/18 06:22:32;;;;;;;;;;;;;;;12.56;75.85;94141.34;4194916;28;20367;-51
2023/04/18 06:24:34;;;;;;;;;;;;;;;12.69;75.19;94140.66;4193212;28;20450;-55
2023/04/18 06:26:35;;;;;;;;;;;;;;;12.78;74.28;94136.94;4195031;28;19924;-56
2023/04/18 06:28:37;;;;;;;;;;;;;;;12.85;73.54;94143.06;4194330;28;19933;-54
2023/04/18 06:30:38;;;;;;;;;;;;;;;12.94;72.85;94140.34;4194048;28;19939;-59
2023/04/18 06:32:40;;;;;;;;;;;;;;;12.93;72.83;94136.91;4193190;28;19928;-55
2023/04/18 06:34:43;;;;;;;;;;;;;;;12.98;72.46;94134.50;4193870;28;19947;-54
2023/04/18 06:36:45;;;;;;;;;;;;;;;13.08;71.91;94134.22;4194523;28;19978;-57
2023/04/18 06:38:46;;;;;;;;;;;;;;;13.15;71.24;94142.16;4194253;28;19924;-53
2023/04/18 06:40:48;;;;;;;;;;;;;;;13.21;71.26;94139.59;4193289;28;20554;-55
2023/04/18 06:42:49;;;;;;;;;;;;;;;13.28;70.54;94142.28;4194416;28;19939;-52
2023/04/18 06:44:51;;;;;;;;;;;;;;;13.22;70.15;94141.19;4193575;28;19925;-54
2023/04/18 06:46:52;;;;;;;;;;;;;;;13.26;69.62;94139.81;4193964;28;19924;-56
2023/04/18 06:48:54;;;;;;;;;;;;;;;13.26;68.73;94141.66;4192881;28;19932;-53
2023/04/18 06:50:55;;;;;;;;;;;;;;;13.29;69.26;94147.38;4192936;28;20012;-53
2023/04/18 06:52:57;;;;;;;;;;;;;;;13.31;68.21;94144.53;4194107;28;19924;-53
2023/04/18 06:54:59;;;;;;;;;;;;;;;13.29;68.25;94144.75;4193232;28;20170;-54
2023/04/18 06:57:02;;;;;;;;;;;;;;;13.31;68.33;94142.75;4193402;28;19959;-53
2023/04/18 06:59:03;;;;;;;;;;;;;;;13.28;67.80;94143.09;4193770;28;19997;-54
2023/04/18 07:01:05;;;;;;;;;;;;;;;13.29;67.88;94149.19;4193051;28;19932;-56
2023/04/18 07:03:11;;;;;;;;;;;;;;;13.25;67.45;94146.09;4192366;28;19924;-52
2023/04/18 07:05:13;;;;;;;;;;;;;;;13.20;67.55;94145.84;4191593;28;19957;-54
2023/04/18 07:07:15;;;;;;;;;;;;;;;13.20;67.46;94143.19;4193747;28;19986;-55
2023/04/18 07:09:16;;;;;;;;;;;;;;;13.20;68.15;94147.66;4193815;28;19925;-51
2023/04/18 07:11:18;;;;;;;;;;;;;;;13.22;67.74;94146.47;4193546;28;20642;-55
2023/04/18 07:13:19;;;;;;;;;;;;;;;13.26;67.79;94152.97;4192710;28;20400;-52
2023/04/18 07:15:21;;;;;;;;;;;;;;;13.38;68.01;94149.84;4191215;28;20015;-53
2023/04/18 07:17:22;;;;;;;;;;;;;;;13.51;67.51;94148.16;4192623;28;20015;-52
2023/04/18 07:19:24;;;;;;;;;;;;;;;13.66;67.78;94147.28;4192700;28;19933;-56
2023/04/18 07:21:26;;;;;;;;;;;;;;;13.63;66.91;94153.72;4193273;28;19936;-52
2023/04/18 07:23:27;;;;;;;;;;;;;;;13.71;66.91;94150.94;4193905;28;20288;-56
2023/04/18 07:25:29;;;;;;;;;;;;;;;13.67;65.71;94149.69;4193502;28;20389;-57
2023/04/18 07:27:30;;;;;;;;;;;;;;;13.78;65.98;94152.81;4192003;28;19925;-59
2023/04/18 07:29:32;;;;;;;;;;;;;;;13.83;65.99;94153.88;4177494;28;20502;-55
2023/04/18 07:31:33;;;;;;;;;;;;;;;13.77;65.51;94157.28;4193257;28;19987;-55
2023/04/18 07:33:36;;;;;;;;;;;;;;;13.66;66.43;94149.91;4189027;28;20005;-55
2023/04/18 07:35:39;;;;;;;;;;;;;;;13.70;66.49;94149.31;4193504;28;19936;-58
2023/04/18 07:37:40;;;;;;;;;;;;;;;13.82;66.27;94152.22;4191436;28;19935;-57
2023/04/18 07:39:42;;;;;;;;;;;;;;;13.92;66.36;94152.72;4193448;28;20299;-57
2023/04/18 07:41:43;;;;;;;;;;;;;;;13.96;65.46;94153.16;4193225;28;20011;-55
2023/04/18 07:43:45;;;;;;;;;;;;;;;13.90;64.97;94152.09;4192917;28;19924;-56
2023/04/18 07:45:46;;;;;;;;;;;;;;;13.59;64.71;94149.03;4192496;28;20030;-52
2023/04/18 07:47:48;;;;;;;;;;;;;;;13.57;65.09;94157.09;4191059;28;20013;-56
2023/04/18 07:49:50;;;;;;;;;;;;;;;13.51;65.64;94161.31;4192428;28;19979;-56
2023/04/18 07:51:51;;;;;;;;;;;;;;;13.60;65.02;94158.56;4193080;28;20340;-54
2023/04/18 07:53:53;;;;;;;;;;;;;;;13.71;64.35;94156.19;4192873;28;20019;-52
2023/04/18 07:55:54;;;;;;;;;;;;;;;13.93;64.18;94156.94;4192674;28;19924;-54
2023/04/18 07:57:56;;;;;;;;;;;;;;;13.99;63.16;94159.84;4193259;28;19979;-53
2023/04/18 07:59:57;;;;;;;;;;;;;;;13.94;63.07;94163.06;4191982;28;19924;-55
2023/04/18 08:01:59;;;;;;;;;;;;;;;13.95;62.59;94161.22;4191424;28;19928;-51
2023/04/18 08:04:00;;;;;;;;;;;;;;;13.83;62.25;94163.56;4190982;28;19986;-53
2023/04/18 08:06:04;;;;;;;;;;;;;;;13.87;61.82;94165.66;4191739;28;19925;-54
2023/04/18 08:08:06;;;;;;;;;;;;;;;13.84;60.71;94168.66;4193499;28;19925;-55
2023/04/18 08:10:08;;;;;;;;;;;;;;;13.89;61.96;94163.59;4191181;28;20165;-55
2023/04/18 08:12:09;;;;;;;;;;;;;;;14.02;61.91;94173.41;4192733;28;20665;-56
2023/04/18 08:14:11;;;;;;;;;;;;;;;13.98;60.40;94166.09;4193231;28;19924;-59
2023/04/18 08:16:12;;;;;;;;;;;;;;;13.97;60.31;94162.66;4187863;28;19941;-54
2023/04/18 08:18:18;;;;;;;;;;;;;;;13.58;58.60;94173.72;4189896;28;20566;-53
2023/04/18 08:20:20;;;;;;;;;;;;;;;13.50;60.07;94170.19;4193327;28;19975;-53
2023/04/18 08:22:21;;;;;;;;;;;;;;;13.70;60.71;94175.66;4193279;28;19932;-55
2023/04/18 08:24:23;;;;;;;;;;;;;;;13.88;60.02;94166.44;4192720;28;19963;-55
2023/04/18 08:26:24;;;;;;;;;;;;;;;14.10;60.13;94167.19;4191455;28;19931;-52
2023/04/18 08:28:26;;;;;;;;;;;;;;;14.24;59.08;94168.06;4192528;28;19974;-54
2023/04/18 08:30:28;;;;;;;;;;;;;;;14.40;58.63;94175.66;4191925;28;19932;-55
2023/04/18 08:32:30;;;;;;;;;;;;;;;14.50;58.08;94170.84;4191817;28;19928;-56
2023/04/18 08:34:32;;;;;;;;;;;;;;;14.57;57.63;94168.28;4192194;28;20039;-54
2023/04/18 08:36:34;;;;;;;;;;;;;;;14.70;57.00;94170.97;4192695;28;19974;-55
2023/04/18 08:38:35;;;;;;;;;;;;;;;14.81;58.25;94176.69;4192013;28;19962;-51
2023/04/18 08:40:37;;;;;;;;;;;;;;;14.81;58.25;94172.22;4194190;28;19928;-57
2023/04/18 08:42:39;;;;;;;;;;;;;;;14.83;56.10;94170.19;4195787;28;20245;-55
2023/04/18 08:44:41;;;;;;;;;;;;;;;14.97;55.90;94167.59;4193155;28;19928;-54
2023/04/18 08:46:42;;;;;;;;;;;;;;;14.91;54.33;94167.38;4196123;28;19990;-54
2023/04/18 08:48:45;;;;;;;;;;;;;;;15.06;55.18;94159.31;4194314;28;19936;-54
2023/04/18 08:50:47;;;;;;;;;;;;;;;15.30;55.02;94155.28;4192236;28;19931;-56
2023/04/18 08:52:48;;;;;;;;;;;;;;;15.46;53.89;94161.19;4195622;28;20040;-54
2023/04/18 08:54:50;;;;;;;;;;;;;;;15.47;54.27;94155.72;4193803;28;20408;-52
2023/04/18 08:57:04;;;;;;;;;;;;;;;15.27;50.96;94152.22;4193286;28;19999;-52
2023/04/18 08:59:06;;;;;;;;;;;;;;;15.17;52.53;94159.75;4193055;28;19924;-52
2023/04/18 09:01:09;;;;;;;;;;;;;;;15.34;53.12;94155.72;4193451;28;19936;-51
2023/04/18 09:03:14;;;;;;;;;;;;;;;15.43;53.61;94159.78;4194633;28;19932;-55
2023/04/18 09:05:18;;;;;;;;;;;;;;;15.62;52.85;94157.34;4193894;28;20264;-54
2023/04/18 09:07:27;;;;;;;;;;;;;;;15.60;52.11;94162.81;4195917;28;20700;-53
2023/04/18 09:09:40;;;;;;;;;;;;;;;15.68;52.23;94159.16;4194216;28;19925;-54
2023/04/18 09:11:42;;;;;;;;;;;;;;;15.66;52.06;94156.75;4192817;28;19928;-53
2023/04/18 09:13:46;;;;;;;;;;;;;;;15.70;52.27;94157.97;4194644;28;19971;-53
2023/04/18 09:15:53;;;;;;;;;;;;;;;15.88;51.53;94154.72;4195090;28;20299;-55
2023/04/18 09:17:56;;;;;;;;;;;;;;;16.12;51.20;94157.72;4192638;28;20028;-56
2023/04/18 09:19:58;;;;;;;;;;;;;;;16.27;49.44;94166.22;4194080;28;20317;-52
2023/04/18 09:22:01;;;;;;;;;;;;;;;16.34;49.72;94150.34;4195676;28;19928;-55
2023/04/18 09:24:16;;;;;;;;;;;;;;;16.53;49.65;94148.66;4195449;28;19947;-53
2023/04/18 09:26:32;;;;;;;;;;;;;;;16.77;48.82;94147.94;4194643;28;20109;-54
2023/04/18 09:28:33;;;;;;;;;;;;;;;16.70;48.98;94149.00;4193570;28;20335;-55
2023/04/18 09:30:38;;;;;;;;;;;;;;;16.80;49.42;94152.06;4192998;28;19932;-54
2023/04/18 09:32:40;;;;;;;;;;;;;;;16.70;48.97;94149.81;4194106;28;20491;-54
2023/04/18 09:34:42;;;;;;;;;;;;;;;16.72;49.85;94158.34;4192362;28;20213;-55
2023/04/18 09:36:43;;;;;;;;;;;;;;;16.54;49.98;94166.97;4195486;28;19932;-57
2023/04/18 09:38:45;;;;;;;;;;;;;;;16.07;52.79;94161.00;4194494;28;20314;-55
2023/04/18 09:40:49;;;;;;;;;;;;;;;15.51;55.03;94166.69;4194482;28;19986;-55
2023/04/18 09:42:53;;;;;;;;;;;;;;;15.17;56.36;94157.09;4190009;28;19929;-53
2023/04/18 09:45:07;;;;;;;;;;;;;;;14.91;57.14;94166.59;4192629;28;19925;-58
2023/04/18 09:47:08;;;;;;;;;;;;;;;14.46;57.66;94163.53;4186243;28;20112;-55
2023/04/18 09:49:10;;;;;;;;;;;;;;;13.97;59.11;94165.28;4193900;28;20013;-54
2023/04/18 09:51:15;;;;;;;;;;;;;;;14.04;58.96;94160.06;4193277;28;20025;-56
2023/04/18 09:53:17;;;;;;;;;;;;;;;14.24;58.46;94147.84;4194250;28;19929;-53
2023/04/18 09:55:21;;;;;;;;;;;;;;;14.50;57.63;94154.25;4194107;28;20015;-55
2023/04/18 09:57:25;;;;;;;;;;;;;;;14.27;58.27;94154.53;4194552;28;19985;-55
2023/04/18 09:59:41;;;;;;;;;;;;;;;13.92;59.47;94160.59;4192356;28;19990;-55
2023/04/18 10:01:44;;;;;;;;;;;;;;;14.11;59.55;94150.38;4192314;28;19954;-55
2023/04/18 10:03:46;;;;;;;;;;;;;;;14.08;59.22;94156.84;4193685;28;19932;-54
2023/04/18 10:05:48;;;;;;;;;;;;;;;14.17;59.39;94156.69;4192908;28;20406;-54
2023/04/18 10:07:49;;;;;;;;;;;;;;;14.04;59.77;94149.53;4193574;28;20264;-51
2023/04/18 10:09:51;;;;;;;;;;;;;;;14.24;59.47;94149.63;4192892;28;20012;-53
2023/04/18 10:11:52;;;;;;;;;;;;;;;14.28;59.86;94151.72;4194413;28;20005;-51
2023/04/18 10:13:55;;;;;;;;;;;;;;;14.36;58.89;94153.34;4192336;28;19925;-55
2023/04/18 10:15:57;;;;;;;;;;;;;;;14.55;58.40;94154.47;4193481;28;19971;-55
2023/04/18 10:18:00;;;;;;;;;;;;;;;14.76;57.44;94152.75;4191417;28;19925;-54
2023/04/18 10:20:07;;;;;;;;;;;;;;;14.42;57.38;94146.50;4185976;28;19983;-53
2023/04/18 10:22:08;;;;;;;;;;;;;;;14.19;57.94;94138.88;4194375;28;19928;-53
2023/04/18 10:24:30;;;;;;;;;;;;;;;14.09;59.12;94145.31;4176007;28;20462;-53
2023/04/18 10:26:45;;;;;;;;;;;;;;;14.16;59.53;94144.53;4182778;28;19935;-52
2023/04/18 10:28:51;;;;;;;;;;;;;;;14.26;57.80;94143.19;4194250;28;19925;-55
2023/04/18 10:30:55;;;;;;;;;;;;;;;14.44;57.57;94139.22;4193146;28;20023;-56
2023/04/18 10:32:56;;;;;;;;;;;;;;;14.68;57.62;94143.19;4192958;28;20014;-54
2023/04/18 10:34:58;;;;;;;;;;;;;;;14.59;57.23;94147.00;4192656;28;19925;-55
2023/04/18 10:37:03;;;;;;;;;;;;;;;14.39;57.57;94144.22;4193240;28;20589;-54